Time;durP1;ratioP1;P1;durP2;ratioP2;P2;SDS_P1;SDS_P2;PMS_P1;PMS_P2;Temp;Humidity;BMP_temperature;BMP_pressure;BME280_temperature;BME280_humidity;BME280_pressure;Samples;Min_cycle;Max_cycle;Signal;HPM_P1;HPM_P2
2022/05/12 00:01:54;;;;;;;18.73;1.77;;;;;;;18.56;73.07;100308.00;8335934;28;20033;-62
2022/05/12 00:05:55;;;;;;;8.63;0.70;;;;;;;18.48;73.69;100302.63;8334709;28;20771;-62
2022/05/12 00:09:56;;;;;;;3.22;1.33;;;;;;;18.35;75.27;100313.44;8335323;28;20400;-62
2022/05/12 00:13:57;;;;;;;7.82;1.15;;;;;;;18.25;76.33;100310.19;8331734;28;20052;-62
2022/05/12 00:17:58;;;;;;;4.00;0.93;;;;;;;18.17;77.37;100317.69;8324876;28;20120;-62
2022/05/12 00:21:59;;;;;;;6.03;1.30;;;;;;;18.02;78.31;100339.59;8314057;28;20040;-62
2022/05/12 00:25:59;;;;;;;6.82;0.80;;;;;;;17.95;78.79;100349.63;8335486;28;20030;-62
2022/05/12 00:29:59;;;;;;;5.18;0.93;;;;;;;17.91;79.14;100348.31;8331319;28;20042;-62
2022/05/12 00:34:00;;;;;;;3.20;0.80;;;;;;;17.88;79.38;100354.16;8340232;28;20103;-62
2022/05/12 00:38:01;;;;;;;4.47;1.63;;;;;;;17.85;79.71;100353.69;8331361;28;20041;-62
2022/05/12 00:42:02;;;;;;;5.63;1.30;;;;;;;17.79;79.99;100354.44;8322238;28;20045;-62
2022/05/12 00:46:05;;;;;;;3.85;1.02;;;;;;;17.74;80.96;100365.09;8337967;28;20101;-62
2022/05/12 00:50:06;;;;;;;8.23;1.60;;;;;;;17.69;81.03;100357.50;8330120;28;20037;-62
2022/05/12 00:54:17;;;;;;;4.78;1.05;;;;;;;17.61;81.46;100357.59;8356553;28;20124;-62
2022/05/12 00:58:20;;;;;;;2.60;1.05;;;;;;;17.53;82.22;100371.34;8323800;28;20041;-62
2022/05/12 01:02:20;;;;;;;6.38;1.30;;;;;;;17.55;82.99;100380.22;8323977;28;20057;-62
2022/05/12 01:06:21;;;;;;;6.68;1.42;;;;;;;17.37;83.72;100374.22;8327336;28;20517;-62
2022/05/12 01:10:23;;;;;;;5.65;1.63;;;;;;;17.29;84.59;100374.31;8327361;28;20045;-62
2022/05/12 01:14:24;;;;;;;7.28;2.33;;;;;;;17.25;85.29;100384.78;8318347;28;20041;-62
2022/05/12 01:18:26;;;;;;;6.45;2.50;;;;;;;17.18;86.14;100388.44;8325084;28;20040;-62
2022/05/12 01:22:51;;;;;;;10.82;2.25;;;;;;;17.18;86.68;100393.91;8337360;28;20037;-62
2022/05/12 01:26:52;;;;;;;4.20;1.90;;;;;;;17.14;87.20;100404.34;8321833;28;20505;-62
2022/05/12 01:30:52;;;;;;;7.00;2.38;;;;;;;17.17;87.39;100403.16;8331178;28;20447;-62
2022/05/12 01:34:54;;;;;;;9.45;2.63;;;;;;;17.07;88.20;100413.47;8335815;28;20053;-62
2022/05/12 01:38:54;;;;;;;7.28;2.67;;;;;;;17.04;89.15;100424.75;8327761;28;20486;-62
2022/05/12 01:42:55;;;;;;;6.53;2.35;;;;;;;17.01;89.11;100426.00;8332393;28;20453;-62
2022/05/12 01:46:57;;;;;;;4.82;2.67;;;;;;;17.00;89.41;100435.22;8338685;28;20044;-62
2022/05/12 01:50:58;;;;;;;8.25;2.50;;;;;;;17.01;89.30;100441.53;8326806;28;20057;-62
2022/05/12 01:54:58;;;;;;;14.93;3.35;;;;;;;16.91;89.69;100430.00;8324785;28;20044;-62
2022/05/12 01:58:59;;;;;;;7.88;3.08;;;;;;;16.92;89.37;100437.16;8344286;28;20112;-62
2022/05/12 02:03:00;;;;;;;5.82;3.50;;;;;;;16.93;88.64;100444.34;8329658;28;20439;-62
2022/05/12 02:07:01;;;;;;;5.15;3.25;;;;;;;16.84;87.80;100439.97;8341874;28;20071;-62
2022/05/12 02:11:01;;;;;;;7.80;3.75;;;;;;;16.82;89.45;100458.41;8325555;28;20137;-62
2022/05/12 02:15:03;;;;;;;9.00;4.32;;;;;;;16.83;89.66;100460.09;8336941;28;20588;-62
2022/05/12 02:19:05;;;;;;;8.00;4.25;;;;;;;16.84;86.39;100461.81;8334523;28;20041;-62
2022/05/12 02:23:05;;;;;;;11.45;4.90;;;;;;;16.78;85.32;100476.19;8347820;28;20053;-62
2022/05/12 02:27:06;;;;;;;7.65;4.78;;;;;;;16.60;85.92;100486.53;8323455;28;20137;-62
2022/05/12 02:31:07;;;;;;;13.63;5.18;;;;;;;16.51;87.83;100487.63;8336314;28;20045;-62
2022/05/12 02:35:08;;;;;;;14.20;5.22;;;;;;;16.14;89.31;100493.75;8323996;28;20038;-62
2022/05/12 02:39:08;;;;;;;17.75;4.93;;;;;;;16.09;88.59;100503.47;8340299;28;20073;-62
2022/05/12 02:43:24;;;;;;;11.00;3.60;;;;;;;15.89;86.49;100507.66;8353660;28;20060;-62
2022/05/12 02:47:24;;;;;;;8.32;4.25;;;;;;;15.48;87.08;100515.03;8340813;28;20328;-62
2022/05/12 02:51:25;;;;;;;7.35;3.38;;;;;;;15.16;88.99;100526.75;8347720;28;20065;-62
2022/05/12 02:55:25;;;;;;;7.20;3.63;;;;;;;15.00;89.63;100529.47;8341005;28;20045;-62
2022/05/12 02:59:25;;;;;;;8.25;3.00;;;;;;;14.97;88.68;100537.13;8337623;28;20701;-62
2022/05/12 03:03:27;;;;;;;11.52;3.42;;;;;;;14.93;88.97;100536.63;8336732;28;20631;-62
2022/05/12 03:07:27;;;;;;;6.60;3.22;;;;;;;15.11;87.21;100550.94;8334570;28;20041;-62
2022/05/12 03:11:28;;;;;;;7.28;3.25;;;;;;;15.07;87.83;100549.56;8340146;28;20105;-62
2022/05/12 03:15:28;;;;;;;9.13;3.83;;;;;;;14.94;88.95;100565.53;8337856;28;20033;-62
2022/05/12 03:19:31;;;;;;;9.45;4.00;;;;;;;14.96;89.24;100568.97;8338149;28;20037;-62
2022/05/12 03:23:31;;;;;;;8.75;3.63;;;;;;;14.84;90.03;100569.44;8349636;28;20033;-62
2022/05/12 03:27:32;;;;;;;7.00;3.40;;;;;;;14.72;90.50;100571.63;8340621;28;20037;-61
2022/05/12 03:31:32;;;;;;;10.60;4.97;;;;;;;14.78;90.70;100580.97;8342279;28;20045;-61
2022/05/12 03:35:33;;;;;;;10.13;3.60;;;;;;;14.74;90.97;100591.38;8340559;28;20053;-61
2022/05/12 03:39:36;;;;;;;10.80;3.90;;;;;;;14.68;90.86;100592.03;8335042;28;20065;-61
2022/05/12 03:45:08;;;;;;;10.10;3.90;;;;;;;14.55;91.42;100591.63;8328905;28;20047;-61
2022/05/12 03:47:57;;;;;;;8.05;3.97;;;;;;;14.52;91.59;100597.38;8341768;28;20563;-61
2022/05/12 03:51:57;;;;;;;9.38;3.90;;;;;;;14.43;91.97;100609.28;8346262;28;20473;-61
2022/05/12 03:55:58;;;;;;;9.27;2.85;;;;;;;14.25;92.22;100622.09;8352007;28;20025;-61
2022/05/12 03:59:59;;;;;;;6.28;3.65;;;;;;;14.22;92.68;100625.09;8341113;28;20026;-61
2022/05/12 04:04:00;;;;;;;10.55;3.53;;;;;;;14.33;92.23;100630.28;8350434;28;20049;-61
2022/05/12 04:08:00;;;;;;;11.90;4.55;;;;;;;14.28;91.97;100638.09;8336927;28;20038;-61
2022/05/12 04:12:02;;;;;;;9.40;3.95;;;;;;;14.02;93.56;100636.34;8339288;28;20038;-61
2022/05/12 04:16:02;;;;;;;8.32;4.57;;;;;;;13.93;94.04;100638.16;8343855;28;20033;-61
2022/05/12 04:20:06;;;;;;;12.20;3.78;;;;;;;13.73;95.01;100642.09;8340377;28;20051;-62
2022/05/12 04:24:08;;;;;;;10.27;4.05;;;;;;;13.64;95.81;100654.72;8361667;28;20045;-61
2022/05/12 04:28:09;;;;;;;6.78;3.60;;;;;;;13.61;96.42;100670.53;8334179;28;20046;-61
2022/05/12 04:32:10;;;;;;;6.50;3.88;;;;;;;13.73;95.13;100669.28;8340855;28;20052;-61
2022/05/12 04:36:11;;;;;;;12.27;4.47;;;;;;;13.88;95.12;100672.28;8340148;28;20060;-61
2022/05/12 04:40:16;;;;;;;12.13;4.15;;;;;;;13.96;95.26;100675.91;8332631;28;20033;-61
2022/05/12 04:44:16;;;;;;;14.82;4.10;;;;;;;14.25;93.99;100686.50;8345146;28;20068;-61
2022/05/12 04:48:17;;;;;;;21.17;4.10;;;;;;;14.59;92.09;100690.97;8339848;28;20052;-61
2022/05/12 04:52:17;;;;;;;15.73;3.45;;;;;;;14.95;88.71;100695.19;8334655;28;20312;-61
2022/05/12 04:56:18;;;;;;;12.23;3.05;;;;;;;15.03;88.33;100699.81;8338324;28;20037;-61
2022/05/12 05:00:22;;;;;;;9.77;3.13;;;;;;;15.29;86.46;100715.09;8334242;28;20095;-61
2022/05/12 05:04:23;;;;;;;8.85;3.03;;;;;;;15.51;85.36;100717.22;8339332;28;20041;-61
2022/05/12 05:08:24;;;;;;;9.55;3.35;;;;;;;15.59;85.09;100719.09;8339185;28;20060;-61
2022/05/12 05:12:25;;;;;;;10.93;3.28;;;;;;;15.96;83.15;100721.34;8331827;28;20106;-61
2022/05/12 05:16:25;;;;;;;9.05;2.80;;;;;;;16.04;83.14;100735.00;8331246;28;20041;-61
2022/05/12 05:20:28;;;;;;;13.05;3.20;;;;;;;16.29;81.91;100736.69;8344050;28;20042;-61
2022/05/12 05:24:29;;;;;;;12.05;3.38;;;;;;;16.44;82.34;100748.66;8323338;28;20046;-61
2022/05/12 05:28:30;;;;;;;13.13;3.80;;;;;;;16.31;83.67;100749.13;8337531;28;20669;-61
2022/05/12 05:32:31;;;;;;;11.32;4.13;;;;;;;16.33;84.08;100758.00;8330379;28;20110;-61
2022/05/12 05:36:31;;;;;;;20.83;4.85;;;;;;;16.62;82.54;100768.41;8331081;28;20061;-61
2022/05/12 05:40:32;;;;;;;21.60;5.10;;;;;;;16.57;84.23;100781.72;8340097;28;20334;-61
2022/05/12 05:44:32;;;;;;;15.05;4.93;;;;;;;17.17;81.71;100769.28;8325527;28;20030;-61
2022/05/12 05:48:33;;;;;;;10.63;5.40;;;;;;;17.41;80.26;100774.63;8326470;28;20042;-61
2022/05/12 05:53:35;;;;;;;20.83;7.77;;;;;;;17.15;81.60;100788.59;8321727;28;20042;-61
2022/05/12 05:56:54;;;;;;;18.88;7.45;;;;;;;17.35;80.94;100794.47;8348221;28;20276;-61
2022/05/12 06:00:55;;;;;;;21.85;7.32;;;;;;;17.78;79.90;100793.94;8339008;28;20084;-61
2022/05/12 06:04:55;;;;;;;13.15;6.90;;;;;;;17.66;79.50;100798.13;8337323;28;20030;-61
2022/05/12 06:08:55;;;;;;;13.85;8.35;;;;;;;17.94;79.35;100802.06;8335064;28;20049;-61
2022/05/12 06:12:56;;;;;;;14.97;8.07;;;;;;;18.17;78.06;100808.38;8347892;28;20037;-61
2022/05/12 06:16:57;;;;;;;19.10;8.15;;;;;;;18.09;78.51;100816.66;8323482;28;20336;-61
2022/05/12 06:20:57;;;;;;;20.27;8.93;;;;;;;17.50;79.42;100809.97;8336587;28;20048;-61
2022/05/12 06:24:57;;;;;;;23.42;9.63;;;;;;;17.17;80.72;100819.28;8329661;28;20272;-61
2022/05/12 06:28:58;;;;;;;19.52;10.65;;;;;;;17.13;81.54;100825.28;8329681;28;20040;-61
2022/05/12 06:32:58;;;;;;;21.92;9.85;;;;;;;17.56;81.04;100824.81;8322879;28;20030;-61
2022/05/12 06:36:59;;;;;;;14.85;9.77;;;;;;;18.08;78.58;100823.16;8341015;28;20037;-61
2022/05/12 06:41:01;;;;;;;19.13;9.90;;;;;;;18.40;76.77;100825.69;8335523;28;20041;-61
2022/05/12 06:45:03;;;;;;;16.98;9.00;;;;;;;18.82;74.52;100836.09;8326082;28;20033;-61
2022/05/12 06:49:03;;;;;;;21.85;9.52;;;;;;;18.96;74.22;100843.50;8328975;28;20084;-61
2022/05/12 06:53:05;;;;;;;20.50;8.85;;;;;;;18.78;74.44;100838.34;8333449;28;20046;-61
2022/05/12 06:57:06;;;;;;;21.90;9.10;;;;;;;19.20;72.05;100835.88;8328847;28;20041;-61
2022/05/12 07:01:09;;;;;;;16.85;8.85;;;;;;;19.42;72.84;100845.06;8324390;28;20088;-61
2022/05/12 07:05:09;;;;;;;16.88;8.48;;;;;;;19.36;72.49;100843.94;8333591;28;20042;-61
2022/05/12 07:09:09;;;;;;;14.02;7.50;;;;;;;19.02;72.25;100849.09;8338170;28;20045;-61
2022/05/12 07:13:10;;;;;;;15.03;8.57;;;;;;;18.55;73.69;100845.78;8345137;28;20482;-61
2022/05/12 07:17:10;;;;;;;12.52;6.68;;;;;;;18.20;72.62;100851.81;8331383;28;20268;-61
2022/05/12 07:26:35;;;;;;;13.35;4.97;;;;;;;18.95;69.68;100853.63;8321547;28;20040;-61
2022/05/12 07:29:51;;;;;;;15.63;6.10;;;;;;;19.23;68.68;100862.06;8334857;28;20486;-61
2022/05/12 07:33:52;;;;;;;14.40;6.30;;;;;;;18.90;70.32;100856.06;8324114;28;20406;-61
2022/05/12 07:37:52;;;;;;;17.15;5.50;;;;;;;18.35;72.12;100863.69;8336486;28;20034;-61
2022/05/12 07:41:53;;;;;;;8.23;3.20;;;;;;;18.01;70.16;100873.31;8325984;28;20045;-61
2022/05/12 07:45:54;;;;;;;8.65;3.20;;;;;;;18.59;69.30;100874.47;8339874;28;20253;-61
2022/05/12 07:49:54;;;;;;;10.00;5.78;;;;;;;19.52;68.38;100868.41;8343479;28;20037;-61
2022/05/12 07:53:55;;;;;;;12.73;6.45;;;;;;;19.95;67.06;100879.56;8338545;28;20112;-61
2022/05/12 07:57:55;;;;;;;9.70;4.13;;;;;;;20.10;65.22;100880.38;8331882;28;20026;-61
2022/05/12 08:01:58;;;;;;;7.72;4.00;;;;;;;20.35;66.19;100887.25;8329890;28;20063;-61
2022/05/12 08:05:59;;;;;;;13.30;4.88;;;;;;;20.34;65.37;100885.56;8337390;28;20029;-61
2022/05/12 08:10:01;;;;;;;11.13;4.40;;;;;;;19.91;63.89;100883.72;8336268;28;20484;-61
2022/05/12 08:14:01;;;;;;;8.40;4.13;;;;;;;20.21;64.26;100888.13;8339379;28;20057;-61
2022/05/12 08:18:01;;;;;;;10.55;4.93;;;;;;;20.76;66.39;100885.53;8333484;28;20041;-61
2022/05/12 08:22:02;;;;;;;13.30;5.30;;;;;;;19.97;66.11;100900.25;8337609;28;20066;-61
2022/05/12 08:26:03;;;;;;;13.75;4.82;;;;;;;20.01;68.88;100906.22;8335738;28;20041;-61
2022/05/12 08:30:07;;;;;;;14.70;4.43;;;;;;;20.62;64.06;100898.28;8335329;28;20045;-61
2022/05/12 08:34:07;;;;;;;4.65;3.25;;;;;;;20.99;61.76;100903.56;8320136;28;20045;-61
2022/05/12 08:38:09;;;;;;;3.42;2.10;;;;;;;21.33;58.44;100913.78;8320960;28;20042;-61
2022/05/12 08:42:33;;;;;;;6.68;2.30;;;;;;;21.40;58.43;100909.16;8313287;28;20048;-61
2022/05/12 08:50:52;;;;;;;4.93;2.72;;;;;;;21.86;58.25;100912.25;8408435;27;20416;-60
2022/05/12 08:55:07;;;;;;;6.28;2.10;;;;;;;22.06;57.87;100914.03;8390210;28;20437;-60
2022/05/12 08:59:08;;;;;;;2.65;1.80;;;;;;;22.26;57.05;100914.94;8380257;28;20092;-61
2022/05/12 09:03:26;;;;;;;4.97;1.85;;;;;;;22.49;58.34;100901.69;8355860;28;20041;-61
2022/05/12 09:12:23;;;;;;;6.22;1.67;;;;;;;22.69;55.64;100899.81;8489737;27;20419;-61
2022/05/12 09:16:28;;;;;;;4.95;2.15;;;;;;;21.76;56.25;100906.25;8468327;27;20048;-61
2022/05/12 09:20:32;;;;;;;3.67;1.45;;;;;;;22.01;56.30;100900.03;8463423;27;20114;-61
2022/05/12 09:24:33;;;;;;;5.65;1.70;;;;;;;22.84;55.21;100903.25;8467257;27;20056;-62
2022/05/12 09:28:36;;;;;;;5.78;1.83;;;;;;;23.16;55.62;100899.66;8471545;27;20549;-61
2022/05/12 09:32:38;;;;;;;7.75;2.50;;;;;;;22.34;53.61;100889.13;8451346;27;20071;-60
2022/05/12 09:36:39;;;;;;;3.88;1.45;;;;;;;23.28;54.02;100894.38;8464857;27;20581;-60
2022/05/12 09:40:39;;;;;;;3.72;1.92;;;;;;;22.82;53.88;100894.34;8480835;27;20550;-60
2022/05/12 09:44:52;;;;;;;3.75;1.15;;;;;;;22.04;53.90;100904.25;8466487;27;20050;-60
2022/05/12 09:48:53;;;;;;;4.78;1.40;;;;;;;22.74;53.32;100897.31;8470557;27;20040;-60
2022/05/12 09:57:26;;;;;;;7.78;2.17;;;;;;;26.79;46.04;100895.47;8318379;28;20406;-60
2022/05/12 10:01:30;;;;;;;6.80;1.98;;;;;;;27.65;46.25;100879.03;8293195;28;20076;-61
2022/05/12 10:09:53;;;;;;;8.55;2.60;;;;;;;28.74;43.66;100879.72;8350427;28;20044;-60
2022/05/12 10:13:57;;;;;;;8.52;1.67;;;;;;;29.21;41.55;100877.53;8328737;28;20049;-60
2022/05/12 10:18:04;;;;;;;4.53;1.70;;;;;;;29.62;41.12;100877.09;8354802;28;20053;-61
2022/05/12 10:22:14;;;;;;;2.58;1.13;;;;;;;29.09;40.63;100872.00;8341197;28;20050;-61
2022/05/12 10:26:29;;;;;;;3.55;1.30;;;;;;;29.17;40.14;100857.69;8332491;28;20057;-61
2022/05/12 10:30:46;;;;;;;9.60;1.60;;;;;;;29.91;39.67;100859.94;8336383;28;20037;-61
2022/05/12 10:35:26;;;;;;;6.88;1.77;;;;;;;29.74;40.61;100855.50;8323054;28;20417;-61
2022/05/12 10:39:52;;;;;;;3.28;1.40;;;;;;;29.89;41.38;100850.97;8332936;28;20046;-61
2022/05/12 10:44:23;;;;;;;5.60;1.63;;;;;;;28.06;42.26;100859.44;8333834;28;20038;-61
2022/05/12 10:53:11;;;;;;;5.57;1.40;;;;;;;28.05;42.50;100841.03;8435231;27;20397;-60
2022/05/12 10:57:45;;;;;;;7.15;1.40;;;;;;;29.41;40.04;100853.63;8391892;28;20040;-60
2022/05/12 11:01:53;;;;;;;3.05;1.00;;;;;;;29.88;39.36;100849.28;8390146;28;20056;-61
2022/05/12 11:05:58;;;;;;;6.07;1.10;;;;;;;29.23;38.88;100848.31;8383271;28;20033;-61
2022/05/12 11:10:24;;;;;;;10.60;2.03;;;;;;;30.19;38.94;100856.16;8386889;28;20489;-61
2022/05/12 11:14:33;;;;;;;2.90;1.20;;;;;;;29.52;38.64;100849.84;8409100;28;20412;-61
2022/05/12 11:18:43;;;;;;;7.03;1.73;;;;;;;27.98;42.89;100841.19;8406282;28;20364;-61
2022/05/12 11:22:58;;;;;;;5.43;1.63;;;;;;;28.95;41.48;100837.22;8412086;28;20047;-61
2022/05/12 11:27:14;;;;;;;7.57;2.00;;;;;;;29.56;41.37;100839.91;8384994;28;20056;-61
2022/05/12 11:31:27;;;;;;;4.28;1.40;;;;;;;29.60;39.45;100851.38;8380647;28;20064;-61
2022/05/12 11:35:30;;;;;;;;;;;;;;;30.55;38.99;100849.03;8390633;28;20041;-61
2022/05/12 11:39:54;;;;;;;7.25;1.60;;;;;;;29.23;42.58;100842.75;8379948;28;19996;-61
2022/05/12 11:44:34;;;;;;;2.80;1.38;;;;;;;30.65;39.38;100838.78;8393107;28;20037;-61
2022/05/12 11:48:43;;;;;;;7.75;1.55;;;;;;;31.50;37.50;100830.31;8386954;28;20036;-61
2022/05/12 11:57:23;;;;;;;9.38;1.92;;;;;;;29.91;39.64;100825.63;8345127;28;20394;-60
2022/05/12 12:10:04;;;;;;;5.82;2.33;;;;;;;23.34;48.49;100809.88;8365652;27;20812;-61
2022/05/12 12:14:05;;;;;;;6.05;2.42;;;;;;;23.30;48.64;100806.72;8389347;28;20048;-61
2022/05/12 12:26:50;;;;;;;6.60;2.10;;;;;;;23.25;49.18;100805.66;8427290;27;20438;-61
2022/05/12 12:30:56;;;;;;;;;;;;;;;23.73;47.85;100793.19;8431358;28;20039;-61
2022/05/12 12:35:11;;;;;;;6.47;1.80;;;;;;;23.34;48.19;100812.63;8433228;28;20257;-61
2022/05/12 12:39:28;;;;;;;7.80;1.85;;;;;;;23.49;48.71;100811.31;8442554;28;20071;-61
2022/05/12 12:43:37;;;;;;;33.97;2.65;;;;;;;23.84;50.07;100800.75;8430426;28;20048;-60
2022/05/12 12:47:48;;;;;;;6.13;2.20;;;;;;;23.97;51.05;100801.56;8418334;28;20037;-61
2022/05/12 12:51:57;;;;;;;7.60;2.30;;;;;;;24.26;49.38;100800.13;8413449;28;20150;-61
2022/05/12 12:56:58;;;;;;;7.68;2.22;;;;;;;24.07;49.76;100798.34;8417676;28;20045;-61
2022/05/12 13:04:38;;;;;;;5.28;2.20;;;;;;;22.88;47.92;100788.69;8350426;28;20423;-60
2022/05/12 13:08:39;;;;;;;4.68;1.70;;;;;;;23.93;48.67;100785.63;8356517;28;20037;-60
2022/05/12 13:12:39;;;;;;;9.55;2.80;;;;;;;23.85;49.40;100781.22;8347432;28;20061;-61
2022/05/12 13:16:48;;;;;;;8.27;2.08;;;;;;;23.99;48.72;100776.50;8342083;28;20093;-61
2022/05/12 13:20:50;;;;;;;8.65;2.08;;;;;;;24.00;50.47;100776.28;8341824;28;20414;-61
2022/05/12 13:24:52;;;;;;;6.32;2.13;;;;;;;23.88;48.89;100763.38;8345937;28;20052;-61
2022/05/12 13:28:53;;;;;;;7.50;2.60;;;;;;;23.77;50.97;100766.81;8341216;28;20048;-61
2022/05/12 13:33:02;;;;;;;5.75;2.47;;;;;;;23.73;48.21;100749.84;8340452;28;20037;-61
2022/05/12 13:37:20;;;;;;;6.72;2.00;;;;;;;23.80;50.47;100758.09;8354519;28;20553;-61
2022/05/12 13:41:27;;;;;;;5.50;2.00;;;;;;;23.52;47.94;100741.03;8344773;28;20093;-61
2022/05/12 13:45:35;;;;;;;6.95;2.00;;;;;;;23.55;47.62;100746.97;8343026;28;20037;-61
2022/05/12 13:49:38;;;;;;;11.98;2.42;;;;;;;23.35;49.36;100745.31;8343561;28;20109;-61
2022/05/12 13:53:49;;;;;;;5.27;2.10;;;;;;;23.65;50.20;100746.47;8337436;28;20037;-60
2022/05/12 13:58:09;;;;;;;6.38;1.67;;;;;;;23.37;49.92;100738.53;8339288;28;20311;-60
2022/05/12 14:02:15;;;;;;;5.43;1.40;;;;;;;23.80;47.91;100744.28;8337145;28;20037;-60
2022/05/12 14:06:28;;;;;;;3.45;1.75;;;;;;;23.75;50.77;100752.41;8346260;28;20494;-60
2022/05/12 14:10:37;;;;;;;8.07;2.00;;;;;;;23.35;50.70;100742.56;8334571;28;20037;-60
2022/05/12 14:19:19;;;;;;;6.72;2.20;;;;;;;23.46;52.01;100744.66;8325279;28;20049;-60
2022/05/12 14:23:19;;;;;;;5.00;1.75;;;;;;;23.45;50.11;100730.00;8310211;28;20401;-60
2022/05/12 14:27:20;;;;;;;4.45;1.90;;;;;;;23.51;50.41;100736.59;8341842;28;20042;-60
2022/05/12 14:31:24;;;;;;;7.80;1.48;;;;;;;23.13;49.27;100741.97;8316994;28;20033;-60
2022/05/12 14:35:26;;;;;;;;;;;;;;;23.43;51.87;100742.34;8318263;28;20072;-60
2022/05/12 14:39:29;;;;;;;5.70;1.85;;;;;;;23.19;49.27;100741.97;8319979;28;20441;-61
2022/05/12 14:43:29;;;;;;;7.72;1.60;;;;;;;23.20;50.68;100732.63;8318464;28;20495;-61
2022/05/12 14:47:31;;;;;;;4.90;1.77;;;;;;;23.31;52.98;100744.06;8314108;28;20986;-61
2022/05/12 14:51:32;;;;;;;5.40;1.42;;;;;;;22.73;49.83;100729.34;8307345;28;20061;-61
2022/05/12 14:55:32;;;;;;;5.70;1.30;;;;;;;23.08;52.49;100733.50;8318235;28;20038;-61
2022/05/12 14:59:32;;;;;;;6.97;1.50;;;;;;;23.27;52.09;100743.69;8312872;28;20029;-61
2022/05/12 15:03:35;;;;;;;3.13;1.75;;;;;;;23.17;52.16;100727.53;8343909;28;20285;-61
2022/05/12 15:07:37;;;;;;;7.03;1.52;;;;;;;22.76;50.70;100718.72;8320244;28;20037;-61
2022/05/12 15:11:38;;;;;;;9.43;1.55;;;;;;;23.03;53.00;100720.34;8315353;28;20398;-60
2022/05/12 15:15:39;;;;;;;15.48;2.05;;;;;;;22.92;52.88;100722.94;8319011;28;20120;-60
2022/05/12 15:19:39;;;;;;;4.40;1.20;;;;;;;22.79;51.47;100715.56;8317608;28;20060;-60
2022/05/12 15:23:41;;;;;;;4.85;1.70;;;;;;;22.73;52.65;100719.16;8314288;28;20281;-60
2022/05/12 15:27:45;;;;;;;4.70;1.42;;;;;;;23.05;52.70;100722.88;8319313;28;20134;-60
2022/05/12 15:31:45;;;;;;;;;;;;;;;22.76;52.90;100724.25;8308972;28;20060;-60
2022/05/12 15:35:49;;;;;;;8.07;1.37;;;;;;;22.65;51.88;100718.50;8317136;28;19944;-60
2022/05/12 15:39:50;;;;;;;4.20;0.85;;;;;;;22.58;52.71;100714.94;8310071;28;20037;-60
2022/05/12 15:43:50;;;;;;;6.07;1.88;;;;;;;22.48;53.59;100715.31;8302296;28;20186;-60
2022/05/12 15:47:51;;;;;;;5.78;1.33;;;;;;;22.42;53.66;100710.66;8310064;28;20048;-60
2022/05/12 15:51:52;;;;;;;5.70;1.63;;;;;;;22.42;53.53;100702.38;8299358;28;20045;-60
2022/05/12 15:55:52;;;;;;;9.50;1.50;;;;;;;22.23;53.75;100716.19;8315565;28;20040;-60
2022/05/12 15:59:53;;;;;;;7.90;1.65;;;;;;;22.37;54.07;100709.59;8310662;28;20105;-60
2022/05/12 16:03:53;;;;;;;3.00;2.17;;;;;;;23.29;56.66;100702.06;8317573;28;21109;-60
2022/05/12 16:07:54;;;;;;;12.70;1.90;;;;;;;23.86;53.04;100705.59;8295721;28;20052;-59
2022/05/12 16:12:31;;;;;;;5.07;1.52;;;;;;;22.82;52.14;100704.09;8295177;28;20268;-61
2022/05/12 16:16:15;;;;;;;12.43;1.85;;;;;;;22.26;54.40;100708.31;8322451;28;20046;-61
2022/05/12 16:20:17;;;;;;;4.43;1.20;;;;;;;22.13;55.50;100715.72;8309289;28;20125;-61
2022/05/12 16:24:17;;;;;;;7.45;1.70;;;;;;;22.07;54.23;100700.91;8311274;28;20411;-61
2022/05/12 16:28:23;;;;;;;3.22;1.17;;;;;;;21.83;55.73;100707.00;8310952;28;20056;-61
2022/05/12 16:32:24;;;;;;;5.03;1.60;;;;;;;21.74;55.57;100705.50;8314186;28;20034;-61
2022/05/12 16:36:24;;;;;;;9.75;1.40;;;;;;;21.70;55.27;100692.31;8310784;28;20402;-61
2022/05/12 16:40:26;;;;;;;7.30;1.20;;;;;;;21.62;55.83;100693.38;8310906;28;20037;-61
2022/05/12 16:44:26;;;;;;;8.30;1.50;;;;;;;21.56;56.16;100685.94;8330715;28;20406;-61
2022/05/12 16:48:27;;;;;;;5.88;1.17;;;;;;;21.53;55.13;100682.78;8315922;28;20046;-61
2022/05/12 16:52:27;;;;;;;4.50;1.05;;;;;;;21.81;52.89;100684.38;8314042;28;20055;-63
2022/05/12 16:56:28;;;;;;;4.75;1.58;;;;;;;21.53;54.62;100697.34;8327219;28;20056;-61
2022/05/12 17:00:30;;;;;;;7.63;1.67;;;;;;;22.67;55.08;100681.44;8301519;28;20073;-63
2022/05/12 17:04:31;;;;;;;6.38;1.25;;;;;;;21.56;54.65;100682.34;8315136;28;20466;-63
2022/05/12 17:08:35;;;;;;;4.35;1.20;;;;;;;21.26;54.92;100692.84;8308975;28;20033;-63
2022/05/12 17:12:36;;;;;;;11.98;1.92;;;;;;;21.17;54.65;100688.56;8314553;28;20121;-63
2022/05/12 17:16:36;;;;;;;4.05;1.00;;;;;;;21.12;53.01;100683.69;8301772;28;20030;-63
2022/05/12 17:20:37;;;;;;;6.38;1.10;;;;;;;21.08;53.49;100682.38;8307721;28;20089;-63
2022/05/12 17:24:37;;;;;;;6.05;1.30;;;;;;;20.99;53.11;100682.75;8311608;28;20038;-64
2022/05/12 17:28:38;;;;;;;4.43;0.98;;;;;;;20.80;53.71;100688.97;8301027;28;20481;-62
2022/05/12 17:32:38;;;;;;;7.40;1.42;;;;;;;20.67;53.59;100683.38;8311935;28;20045;-62
2022/05/12 17:36:39;;;;;;;4.13;1.25;;;;;;;20.47;54.64;100693.41;8329770;28;20037;-62
2022/05/12 17:40:41;;;;;;;3.67;0.98;;;;;;;20.37;54.89;100685.50;8305818;28;20034;-62
2022/05/12 17:44:42;;;;;;;7.22;1.45;;;;;;;20.36;54.32;100685.69;8311864;28;20045;-62
2022/05/12 17:48:43;;;;;;;7.13;1.52;;;;;;;20.38;55.17;100684.47;8314121;28;20525;-63
2022/05/12 17:52:43;;;;;;;6.30;1.00;;;;;;;20.11;58.45;100693.50;8322308;28;20038;-62
2022/05/12 17:56:43;;;;;;;9.30;1.98;;;;;;;20.11;58.75;100684.41;8315267;28;20041;-63
2022/05/12 18:00:44;;;;;;;7.18;1.77;;;;;;;19.97;58.10;100675.19;8314023;28;20052;-62
2022/05/12 18:04:44;;;;;;;13.68;1.60;;;;;;;19.80;59.34;100675.66;8316220;28;20064;-62
2022/05/12 18:08:46;;;;;;;10.05;2.05;;;;;;;19.83;58.23;100678.00;8314921;28;20042;-62
2022/05/12 18:12:47;;;;;;;5.10;1.48;;;;;;;19.85;57.76;100676.75;8325851;28;20428;-62
2022/05/12 18:16:47;;;;;;;4.23;1.20;;;;;;;19.66;59.25;100688.38;8316064;28;20117;-62
2022/05/12 18:20:48;;;;;;;7.57;1.70;;;;;;;19.80;58.14;100683.88;8298138;28;20307;-63
2022/05/12 18:24:49;;;;;;;5.30;1.42;;;;;;;19.79;58.45;100693.19;8299173;28;20646;-63
2022/05/12 18:28:50;;;;;;;9.05;1.52;;;;;;;19.94;57.42;100702.19;8319611;28;20038;-63
2022/05/12 18:32:50;;;;;;;5.95;1.90;;;;;;;19.82;57.84;100709.25;8302827;28;20069;-63
2022/05/12 18:36:51;;;;;;;11.38;1.65;;;;;;;21.12;57.75;100710.31;8295523;28;20038;-61
2022/05/12 18:40:53;;;;;;;6.97;1.45;;;;;;;19.90;58.67;100712.72;8309970;28;20041;-63
2022/05/12 18:44:53;;;;;;;9.98;1.65;;;;;;;19.41;59.64;100712.59;8315929;28;20041;-63
2022/05/12 18:48:53;;;;;;;15.68;1.80;;;;;;;19.39;59.98;100719.31;8310926;28;20609;-63
2022/05/12 18:52:54;;;;;;;19.70;1.83;;;;;;;19.16;62.45;100719.38;8308232;28;20038;-63
2022/05/12 18:56:54;;;;;;;19.33;2.72;;;;;;;18.99;62.62;100728.88;8315114;28;20042;-63
2022/05/12 19:00:56;;;;;;;21.35;2.80;;;;;;;18.85;62.80;100732.44;8313526;28;20108;-63
2022/05/12 19:04:56;;;;;;;10.93;1.95;;;;;;;18.80;62.07;100723.97;8306569;28;20780;-64
2022/05/12 19:08:59;;;;;;;9.00;1.77;;;;;;;18.71;63.19;100741.53;8311757;28;20414;-64
2022/05/12 19:12:59;;;;;;;12.02;2.20;;;;;;;18.73;62.60;100739.44;8326057;28;20042;-64
2022/05/12 19:16:59;;;;;;;13.70;1.88;;;;;;;18.78;63.58;100737.00;8305216;28;20093;-64
2022/05/12 19:21:00;;;;;;;8.55;1.98;;;;;;;18.16;65.76;100741.00;8309634;28;20451;-64
2022/05/12 19:25:02;;;;;;;12.63;1.70;;;;;;;18.20;64.84;100747.78;8311723;28;20042;-63
2022/05/12 19:29:02;;;;;;;12.85;2.58;;;;;;;17.92;67.14;100749.41;8308803;28;20050;-63
2022/05/12 19:33:04;;;;;;;15.55;2.17;;;;;;;17.62;67.98;100749.44;8304172;28;20030;-63
2022/05/12 19:37:04;;;;;;;15.55;2.05;;;;;;;17.48;68.96;100759.25;8310394;28;20042;-63
2022/05/12 19:41:05;;;;;;;12.93;2.53;;;;;;;17.36;69.32;100764.22;8304381;28;20038;-63
2022/05/12 19:45:06;;;;;;;8.25;2.00;;;;;;;17.43;69.41;100764.41;8312230;28;20413;-63
2022/05/12 19:49:06;;;;;;;13.95;2.10;;;;;;;17.22;71.07;100778.66;8304861;28;20048;-63